Time,TemperatureF,DewpointF,PressureIn,WindDirection,WindDirectionDegrees,WindSpeedMPH,WindSpeedGustMPH,Humidity,HourlyPrecipIn,Conditions,Clouds,dailyrainin,SoftwareType,DateUTC
2013-09-28 00:02:00,54.0,49.5,29.98,WNW,292,0.0,0.0,85,0.00,,,0.00,open2300-1.11,2013-09-27 22:02:00,
2013-09-28 00:11:00,53.8,49.7,29.98,NW,315,0.0,0.0,86,0.00,,,0.00,open2300-1.11,2013-09-27 22:11:00,
2013-09-28 00:29:00,53.8,49.7,29.97,NNW,337,0.0,0.0,86,0.00,,,0.00,open2300-1.11,2013-09-27 22:29:00,
2013-09-28 00:38:00,53.8,50.0,29.97,North,0,0.0,0.0,87,0.00,,,0.00,open2300-1.11,2013-09-27 22:38:00,
2013-09-28 00:47:00,53.8,50.0,29.97,NE,45,0.0,0.0,87,0.00,,,0.00,open2300-1.11,2013-09-27 22:47:00,
2013-09-28 00:56:00,53.8,50.0,29.97,NE,45,0.0,0.0,87,0.00,,,0.00,open2300-1.11,2013-09-27 22:56:00,
2013-09-28 01:02:00,53.8,50.0,29.97,NNE,22,0.0,0.0,87,0.00,,,0.00,open2300-1.11,2013-09-27 23:02:00,
2013-09-28 01:11:00,53.4,49.6,29.97,NNE,22,0.0,0.0,87,0.00,,,0.00,open2300-1.11,2013-09-27 23:11:00,
2013-09-28 01:29:00,53.4,49.6,29.97,WSW,247,0.0,0.0,87,0.00,,,0.00,open2300-1.11,2013-09-27 23:29:00,
2013-09-28 01:38:00,53.4,49.9,29.97,SW,225,0.0,0.0,88,0.00,,,0.00,open2300-1.11,2013-09-27 23:38:00,
2013-09-28 01:47:00,53.4,50.2,29.97,SW,225,0.0,0.0,89,0.00,,,0.00,open2300-1.11,2013-09-27 23:47:00,
2013-09-28 01:56:00,53.2,50.0,29.96,SW,225,0.0,0.0,89,0.00,,,0.00,open2300-1.11,2013-09-27 23:56:00,
2013-09-28 02:02:00,53.2,50.0,29.96,WSW,247,0.0,0.0,89,0.00,,,0.00,open2300-1.11,2013-09-28 00:02:00,
2013-09-28 02:11:00,52.9,50.0,29.97,West,270,0.0,0.0,90,0.00,,,0.00,open2300-1.11,2013-09-28 00:11:00,
2013-09-28 02:29:00,52.9,50.0,29.97,West,270,0.0,0.0,90,0.00,,,0.00,open2300-1.11,2013-09-28 00:29:00,
2013-09-28 02:38:00,52.7,49.8,29.97,WSW,247,0.0,0.0,90,0.00,,,0.00,open2300-1.11,2013-09-28 00:38:00,
2013-09-28 02:47:00,52.7,49.8,29.97,SW,225,0.0,0.0,90,0.00,,,0.00,open2300-1.11,2013-09-28 00:47:00,
2013-09-28 02:56:00,52.5,49.6,29.97,West,270,0.0,0.0,90,0.00,,,0.00,open2300-1.11,2013-09-28 00:56:00,
2013-09-28 03:11:00,52.3,49.8,29.96,SW,225,0.0,0.0,91,0.00,,,0.00,open2300-1.11,2013-09-28 01:11:00,
2013-09-28 03:29:00,51.8,49.2,29.97,SW,225,0.0,0.0,91,0.00,,,0.00,open2300-1.11,2013-09-28 01:29:00,
2013-09-28 03:38:00,51.6,49.3,29.96,WSW,247,0.0,0.0,92,0.00,,,0.00,open2300-1.11,2013-09-28 01:38:00,
2013-09-28 03:47:00,51.4,49.1,29.96,WSW,247,0.0,0.0,92,0.00,,,0.00,open2300-1.11,2013-09-28 01:47:00,
2013-09-28 03:56:00,51.1,49.1,29.95,WSW,247,0.0,0.0,93,0.00,,,0.00,open2300-1.11,2013-09-28 01:56:00,
2013-09-28 04:02:00,51.1,49.1,29.95,WSW,247,0.0,0.0,93,0.00,,,0.00,open2300-1.11,2013-09-28 02:02:00,
2013-09-28 04:11:00,50.9,48.9,29.96,WNW,292,0.0,0.0,93,0.00,,,0.00,open2300-1.11,2013-09-28 02:11:00,
2013-09-28 04:29:00,50.7,49.0,29.96,WNW,292,0.0,0.0,94,0.00,,,0.00,open2300-1.11,2013-09-28 02:29:00,
2013-09-28 04:38:00,50.5,49.1,29.95,WNW,292,0.0,0.0,95,0.00,,,0.00,open2300-1.11,2013-09-28 02:38:00,
2013-09-28 04:47:00,50.2,48.7,29.95,WSW,247,0.0,0.0,95,0.00,,,0.00,open2300-1.11,2013-09-28 02:47:00,
2013-09-28 04:56:00,49.8,48.4,29.95,WSW,247,0.0,0.0,95,0.00,,,0.00,open2300-1.11,2013-09-28 02:56:00,
2013-09-28 05:02:00,49.8,48.4,29.96,WSW,247,0.0,0.0,95,0.00,,,0.00,open2300-1.11,2013-09-28 03:02:00,
2013-09-28 05:11:00,49.5,48.3,29.95,WNW,292,0.0,0.0,96,0.00,,,0.00,open2300-1.11,2013-09-28 03:11:00,
2013-09-28 05:29:00,49.1,48.2,29.95,WNW,292,0.0,0.0,97,0.00,,,0.00,open2300-1.11,2013-09-28 03:29:00,
2013-09-28 05:38:00,48.9,48.1,29.95,WNW,292,0.0,0.0,97,0.00,,,0.00,open2300-1.11,2013-09-28 03:38:00,
2013-09-28 05:47:00,48.7,47.9,29.95,WNW,292,0.0,0.0,97,0.00,,,0.00,open2300-1.11,2013-09-28 03:47:00,
2013-09-28 05:56:00,48.4,47.8,29.95,WNW,292,0.0,0.0,98,0.00,,,0.00,open2300-1.11,2013-09-28 03:56:00,
2013-09-28 06:02:00,48.4,47.8,29.95,WNW,292,0.0,0.0,98,0.00,,,0.00,open2300-1.11,2013-09-28 04:02:00,
2013-09-28 06:11:00,48.2,47.7,29.95,WSW,247,0.0,0.0,98,0.00,,,0.00,open2300-1.11,2013-09-28 04:11:00,
2013-09-28 06:29:00,48.2,47.9,29.95,SW,225,0.0,0.0,99,0.00,,,0.00,open2300-1.11,2013-09-28 04:29:00,
2013-09-28 06:38:00,48.0,47.8,29.95,WSW,247,0.0,0.0,99,0.00,,,0.00,open2300-1.11,2013-09-28 04:38:00,
2013-09-28 06:47:00,48.0,47.8,29.95,WSW,247,0.0,0.0,99,0.00,,,0.00,open2300-1.11,2013-09-28 04:47:00,
2013-09-28 06:56:00,47.8,47.6,29.96,WSW,247,0.0,0.0,99,0.00,,,0.00,open2300-1.11,2013-09-28 04:56:00,
2013-09-28 07:02:00,47.8,47.6,29.97,WSW,247,0.0,0.0,99,0.00,,,0.00,open2300-1.11,2013-09-28 05:02:00,
2013-09-28 07:11:00,47.8,47.6,29.97,WSW,247,0.0,0.0,99,0.00,,,0.00,open2300-1.11,2013-09-28 05:11:00,
2013-09-28 07:29:00,48.0,47.8,29.96,WNW,292,0.0,0.0,99,0.00,,,0.00,open2300-1.11,2013-09-28 05:29:00,
2013-09-28 07:38:00,48.0,47.8,29.96,WNW,292,0.0,0.0,99,0.00,,,0.00,open2300-1.11,2013-09-28 05:38:00,
2013-09-28 07:47:00,48.4,48.1,29.96,WNW,292,0.0,0.0,99,0.00,,,0.00,open2300-1.11,2013-09-28 05:47:00,
2013-09-28 07:56:00,48.7,48.5,29.96,WNW,292,0.0,0.0,99,0.00,,,0.00,open2300-1.11,2013-09-28 05:56:00,
2013-09-28 08:02:00,49.1,48.8,29.97,NE,45,0.0,0.0,99,0.00,,,0.00,open2300-1.11,2013-09-28 06:02:00,
2013-09-28 08:11:00,49.3,49.0,29.97,NE,45,0.0,0.0,99,0.00,,,0.00,open2300-1.11,2013-09-28 06:11:00,
2013-09-28 08:29:00,50.2,49.3,29.98,NNE,22,0.0,0.0,97,0.00,,,0.00,open2300-1.11,2013-09-28 06:29:00,
2013-09-28 08:38:00,50.5,49.7,29.98,NNE,22,0.0,0.0,97,0.00,,,0.00,open2300-1.11,2013-09-28 06:38:00,
2013-09-28 08:47:00,50.7,49.3,29.98,NNE,22,0.0,0.0,95,0.00,,,0.00,open2300-1.11,2013-09-28 06:47:00,
2013-09-28 08:56:00,50.9,49.5,29.98,NNE,22,0.0,0.0,95,0.00,,,0.00,open2300-1.11,2013-09-28 06:56:00,
2013-09-28 09:02:00,51.1,49.3,29.98,NNE,22,0.0,0.0,94,0.00,,,0.00,open2300-1.11,2013-09-28 07:02:00,
2013-09-28 09:11:00,51.4,49.4,29.98,NNE,22,0.0,0.0,93,0.00,,,0.00,open2300-1.11,2013-09-28 07:11:00,
2013-09-28 09:29:00,51.8,49.2,29.98,NNE,22,0.0,0.0,91,0.00,,,0.00,open2300-1.11,2013-09-28 07:29:00,
2013-09-28 09:38:00,52.2,49.3,29.98,NNE,22,0.0,0.0,90,0.00,,,0.00,open2300-1.11,2013-09-28 07:38:00,
2013-09-28 09:47:00,52.7,49.5,29.98,ENE,67,0.0,0.0,89,0.00,,,0.00,open2300-1.11,2013-09-28 07:47:00,
2013-09-28 09:56:00,53.8,50.0,29.98,NW,315,0.0,0.0,87,0.00,,,0.00,open2300-1.11,2013-09-28 07:56:00,
2013-09-28 10:02:00,54.1,50.0,29.98,NE,45,0.0,0.0,86,0.00,,,0.00,open2300-1.11,2013-09-28 08:02:00,
2013-09-28 10:11:00,54.7,49.9,29.99,NNW,337,0.0,0.0,84,0.00,,,0.00,open2300-1.11,2013-09-28 08:11:00,
2013-09-28 10:29:00,56.5,50.4,29.99,North,0,0.0,0.0,80,0.00,,,0.00,open2300-1.11,2013-09-28 08:29:00,
2013-09-28 10:38:00,57.0,49.8,29.99,NNE,22,1.1,1.1,77,0.00,,,0.00,open2300-1.11,2013-09-28 08:38:00,
2013-09-28 10:56:00,57.7,49.8,29.99,NNW,337,0.0,0.0,75,0.00,,,0.00,open2300-1.11,2013-09-28 08:56:00,
2013-09-28 11:02:00,58.1,49.8,29.99,North,0,0.0,2.9,74,0.00,,,0.00,open2300-1.11,2013-09-28 09:02:00,
2013-09-28 11:11:00,58.5,49.5,29.99,North,0,0.0,0.0,72,0.00,,,0.00,open2300-1.11,2013-09-28 09:11:00,
2013-09-28 11:29:00,60.4,50.3,29.98,NNE,22,0.0,2.9,69,0.00,,,0.00,open2300-1.11,2013-09-28 09:29:00,
2013-09-28 11:38:00,61.3,49.9,29.98,NE,45,0.0,1.8,66,0.00,,,0.00,open2300-1.11,2013-09-28 09:38:00,
2013-09-28 11:47:00,61.3,49.1,29.98,NNE,22,0.0,0.0,64,0.00,,,0.00,open2300-1.11,2013-09-28 09:47:00,
2013-09-28 11:56:00,60.1,48.3,29.98,East,90,0.0,0.0,65,0.00,,,0.00,open2300-1.11,2013-09-28 09:56:00,
2013-09-28 12:11:00,59.9,48.1,29.98,East,90,0.0,0.0,65,0.00,,,0.00,open2300-1.11,2013-09-28 10:11:00,
2013-09-28 12:29:00,61.3,48.7,29.97,North,0,0.0,1.8,63,0.00,,,0.00,open2300-1.11,2013-09-28 10:29:00,
2013-09-28 12:38:00,61.7,49.0,29.96,East,90,0.0,0.0,63,0.00,,,0.00,open2300-1.11,2013-09-28 10:38:00,
2013-09-28 12:47:00,62.4,49.2,29.96,ENE,67,0.0,0.0,62,0.00,,,0.00,open2300-1.11,2013-09-28 10:47:00,
2013-09-28 12:56:00,62.8,48.2,29.96,North,0,0.0,0.0,58,0.00,,,0.00,open2300-1.11,2013-09-28 10:56:00,
2013-09-28 13:02:00,63.1,48.1,29.96,NNW,337,1.8,1.8,58,0.00,,,0.00,open2300-1.11,2013-09-28 11:02:00,
2013-09-28 13:11:00,63.3,48.2,29.95,North,0,0.0,1.8,58,0.00,,,0.00,open2300-1.11,2013-09-28 11:11:00,
2013-09-28 13:29:00,63.5,47.4,29.95,NNE,22,2.0,2.0,56,0.00,,,0.00,open2300-1.11,2013-09-28 11:29:00,
2013-09-28 13:38:00,63.7,45.6,29.95,SSE,157,0.0,2.0,52,0.00,,,0.00,open2300-1.11,2013-09-28 11:38:00,
2013-09-28 13:47:00,64.0,46.0,29.95,North,0,0.0,0.0,52,0.00,,,0.00,open2300-1.11,2013-09-28 11:47:00,
2013-09-28 13:56:00,64.2,46.1,29.94,NNW,337,0.0,3.1,52,0.00,,,0.00,open2300-1.11,2013-09-28 11:56:00,
2013-09-28 14:02:00,64.6,47.0,29.95,NW,315,0.0,0.0,53,0.00,,,0.00,open2300-1.11,2013-09-28 12:02:00,
2013-09-28 14:11:00,64.2,46.6,29.94,NNE,22,0.0,0.0,53,0.00,,,0.00,open2300-1.11,2013-09-28 12:11:00,
2013-09-28 14:29:00,64.6,47.0,29.94,North,0,0.0,2.7,53,0.00,,,0.00,open2300-1.11,2013-09-28 12:29:00,
2013-09-28 14:38:00,64.2,46.6,29.94,NNE,22,0.0,3.8,53,0.00,,,0.00,open2300-1.11,2013-09-28 12:38:00,
2013-09-28 14:47:00,64.2,46.6,29.94,NE,45,0.0,0.0,53,0.00,,,0.00,open2300-1.11,2013-09-28 12:47:00,
2013-09-28 14:56:00,64.6,46.5,29.93,NE,45,0.0,0.0,52,0.00,,,0.00,open2300-1.11,2013-09-28 12:56:00,
2013-09-28 15:02:00,64.4,46.3,29.93,North,0,3.8,3.8,52,0.00,,,0.00,open2300-1.11,2013-09-28 13:02:00,
2013-09-28 15:11:00,64.8,46.2,29.93,NNE,22,2.5,3.8,51,0.00,,,0.00,open2300-1.11,2013-09-28 13:11:00,
2013-09-28 15:29:00,64.6,45.5,29.93,NNE,22,0.0,2.5,50,0.00,,,0.00,open2300-1.11,2013-09-28 13:29:00,
2013-09-28 15:38:00,64.6,44.9,29.92,West,270,0.0,0.0,49,0.00,,,0.00,open2300-1.11,2013-09-28 13:38:00,
2013-09-28 15:47:00,64.2,44.6,29.92,NNW,337,0.0,0.0,49,0.00,,,0.00,open2300-1.11,2013-09-28 13:47:00,
2013-09-28 15:56:00,64.2,45.2,29.92,NNE,22,0.0,0.0,50,0.00,,,0.00,open2300-1.11,2013-09-28 13:56:00,
2013-09-28 16:02:00,64.2,45.6,29.92,North,0,0.0,0.0,51,0.00,,,0.00,open2300-1.11,2013-09-28 14:02:00,
2013-09-28 16:11:00,64.2,45.2,29.91,NNE,22,0.0,0.0,50,0.00,,,0.00,open2300-1.11,2013-09-28 14:11:00,
2013-09-28 16:29:00,63.9,45.3,29.91,North,0,0.0,0.0,51,0.00,,,0.00,open2300-1.11,2013-09-28 14:29:00,
2013-09-28 16:38:00,63.7,45.2,29.91,NE,45,0.0,0.0,51,0.00,,,0.00,open2300-1.11,2013-09-28 14:38:00,
2013-09-28 16:47:00,63.5,45.0,29.91,North,0,0.0,0.0,51,0.00,,,0.00,open2300-1.11,2013-09-28 14:47:00,
2013-09-28 16:56:00,63.0,45.0,29.91,North,0,0.0,0.0,52,0.00,,,0.00,open2300-1.11,2013-09-28 14:56:00,
2013-09-28 17:02:00,62.8,44.8,29.91,NNE,22,0.0,0.0,52,0.00,,,0.00,open2300-1.11,2013-09-28 15:02:00,
2013-09-28 17:11:00,62.4,44.5,29.90,North,0,0.0,0.0,52,0.00,,,0.00,open2300-1.11,2013-09-28 15:11:00,
2013-09-28 17:29:00,61.5,44.2,29.91,North,0,0.0,0.0,53,0.00,,,0.00,open2300-1.11,2013-09-28 15:29:00,
2013-09-28 17:38:00,61.2,44.3,29.91,NNE,22,0.0,0.0,54,0.00,,,0.00,open2300-1.11,2013-09-28 15:38:00,
2013-09-28 17:47:00,60.8,45.0,29.91,NNE,22,0.0,0.0,56,0.00,,,0.00,open2300-1.11,2013-09-28 15:47:00,
2013-09-28 17:56:00,60.1,45.2,29.91,NNE,22,0.0,0.0,58,0.00,,,0.00,open2300-1.11,2013-09-28 15:56:00,
2013-09-28 18:02:00,60.1,45.7,29.91,NNE,22,0.0,0.0,59,0.00,,,0.00,open2300-1.11,2013-09-28 16:02:00,
2013-09-28 18:11:00,59.0,45.5,29.91,NNE,22,0.0,0.0,61,0.00,,,0.00,open2300-1.11,2013-09-28 16:11:00,
2013-09-28 18:38:00,56.8,46.0,29.91,NNE,22,0.0,0.0,67,0.00,,,0.00,open2300-1.11,2013-09-28 16:38:00,
2013-09-28 18:47:00,55.9,45.9,29.91,NNE,22,0.0,0.0,69,0.00,,,0.00,open2300-1.11,2013-09-28 16:47:00,
2013-09-28 18:56:00,55.2,46.4,29.91,NNE,22,0.0,0.0,72,0.00,,,0.00,open2300-1.11,2013-09-28 16:56:00,
2013-09-28 19:02:00,55.0,46.2,29.92,NNE,22,0.0,0.0,72,0.00,,,0.00,open2300-1.11,2013-09-28 17:02:00,
2013-09-28 19:11:00,54.3,46.5,29.92,NNE,22,0.0,0.0,75,0.00,,,0.00,open2300-1.11,2013-09-28 17:11:00,
2013-09-28 19:38:00,53.2,47.3,29.92,NNE,22,0.0,0.0,80,0.00,,,0.00,open2300-1.11,2013-09-28 17:38:00,
2013-09-28 19:47:00,52.7,47.4,29.92,NNE,22,0.0,0.0,82,0.00,,,0.00,open2300-1.11,2013-09-28 17:47:00,
2013-09-28 19:56:00,52.3,47.3,29.92,NNE,22,0.0,0.0,83,0.00,,,0.00,open2300-1.11,2013-09-28 17:56:00,
2013-09-28 20:02:00,52.2,47.1,29.92,NNE,22,0.0,0.0,83,0.00,,,0.00,open2300-1.11,2013-09-28 18:02:00,
2013-09-28 20:11:00,52.2,47.4,29.92,NNE,22,0.0,0.0,84,0.00,,,0.00,open2300-1.11,2013-09-28 18:11:00,
2013-09-28 20:29:00,51.8,47.4,29.92,NNE,22,0.0,0.0,85,0.00,,,0.00,open2300-1.11,2013-09-28 18:29:00,
2013-09-28 20:38:00,51.6,47.5,29.92,NNE,22,0.0,0.0,86,0.00,,,0.00,open2300-1.11,2013-09-28 18:38:00,
2013-09-28 20:47:00,51.4,47.3,29.93,NNE,22,0.0,0.0,86,0.00,,,0.00,open2300-1.11,2013-09-28 18:47:00,
2013-09-28 21:02:00,51.1,47.3,29.92,NNE,22,0.0,0.0,87,0.00,,,0.00,open2300-1.11,2013-09-28 19:02:00,
2013-09-28 21:11:00,50.7,47.2,29.92,NNE,22,0.0,0.0,88,0.00,,,0.00,open2300-1.11,2013-09-28 19:11:00,
2013-09-28 21:29:00,50.4,47.2,29.93,NNE,22,0.0,0.0,89,0.00,,,0.00,open2300-1.11,2013-09-28 19:29:00,
2013-09-28 21:38:00,50.2,47.3,29.93,NNE,22,0.0,0.0,90,0.00,,,0.00,open2300-1.11,2013-09-28 19:38:00,
2013-09-28 21:47:00,50.2,47.3,29.93,NNE,22,0.0,0.0,90,0.00,,,0.00,open2300-1.11,2013-09-28 19:47:00,
2013-09-28 21:56:00,50.4,47.5,29.93,NNE,22,0.0,0.0,90,0.00,,,0.00,open2300-1.11,2013-09-28 19:56:00,
2013-09-28 22:02:00,50.2,47.3,29.93,NNE,22,0.0,0.0,90,0.00,,,0.00,open2300-1.11,2013-09-28 20:02:00,
2013-09-28 22:11:00,49.8,47.0,29.93,NNE,22,0.0,0.0,90,0.00,,,0.00,open2300-1.11,2013-09-28 20:11:00,
2013-09-28 22:29:00,49.8,47.2,29.93,NNE,22,0.0,0.0,91,0.00,,,0.00,open2300-1.11,2013-09-28 20:29:00,
2013-09-28 22:38:00,49.8,47.5,29.93,NNE,22,0.0,0.0,92,0.00,,,0.00,open2300-1.11,2013-09-28 20:38:00,
2013-09-28 22:47:00,49.8,47.5,29.93,NNE,22,0.0,0.0,92,0.00,,,0.00,open2300-1.11,2013-09-28 20:47:00,
2013-09-28 22:56:00,49.8,47.5,29.93,NNE,22,0.0,0.0,92,0.00,,,0.00,open2300-1.11,2013-09-28 20:56:00,
2013-09-28 23:02:00,49.8,47.5,29.93,NNE,22,0.0,0.0,92,0.00,,,0.00,open2300-1.11,2013-09-28 21:02:00,
2013-09-28 23:20:00,50.5,48.2,29.93,SSE,157,0.0,0.0,92,0.00,,,0.00,open2300-1.11,2013-09-28 21:20:00,
2013-09-28 23:29:00,50.7,48.4,29.93,SSE,157,0.0,0.0,92,0.00,,,0.00,open2300-1.11,2013-09-28 21:29:00,
2013-09-28 23:38:00,51.1,48.8,29.93,SSE,157,0.0,0.0,92,0.00,,,0.00,open2300-1.11,2013-09-28 21:38:00,
2013-09-28 23:47:00,51.3,49.0,29.93,SSE,157,0.0,0.0,92,0.00,,,0.00,open2300-1.11,2013-09-28 21:47:00,
2013-09-28 23:56:00,51.6,49.0,29.93,SSE,157,0.0,0.0,91,0.00,,,0.00,open2300-1.11,2013-09-28 21:56:00,